sensor_id;sensor_type;location;lat;lon;timestamp;pressure;altitude;pressure_sealevel;temperature;humidity
30897;BME280;64229;52.246;21.054;2023-09-19T00:00:45;99922.53;;;18.17;100.00
30897;BME280;64229;52.246;21.054;2023-09-19T00:03:12;99916.72;;;18.07;100.00
30897;BME280;64229;52.246;21.054;2023-09-19T00:05:38;99905.31;;;18.01;100.00
30897;BME280;64229;52.246;21.054;2023-09-19T00:08:05;99923.53;;;18.13;100.00
30897;BME280;64229;52.246;21.054;2023-09-19T00:10:32;99911.34;;;17.98;100.00
30897;BME280;64229;52.246;21.054;2023-09-19T00:13:00;99918.97;;;17.96;100.00
30897;BME280;64229;52.246;21.054;2023-09-19T00:15:30;99907.53;;;17.99;100.00
30897;BME280;64229;52.246;21.054;2023-09-19T00:17:55;99910.13;;;17.87;100.00
30897;BME280;64229;52.246;21.054;2023-09-19T00:20:21;99898.22;;;17.88;100.00
30897;BME280;64229;52.246;21.054;2023-09-19T00:22:49;99907.56;;;17.90;100.00
30897;BME280;64229;52.246;21.054;2023-09-19T00:25:17;99903.44;;;17.84;100.00
30897;BME280;64229;52.246;21.054;2023-09-19T00:27:42;99908.38;;;17.82;100.00
30897;BME280;64229;52.246;21.054;2023-09-19T00:30:09;99897.91;;;17.81;100.00
30897;BME280;64229;52.246;21.054;2023-09-19T00:32:50;99911.53;;;17.84;100.00
30897;BME280;64229;52.246;21.054;2023-09-19T00:35:22;99909.97;;;17.75;100.00
30897;BME280;64229;52.246;21.054;2023-09-19T00:37:49;99904.09;;;17.73;100.00
30897;BME280;64229;52.246;21.054;2023-09-19T00:40:14;99902.34;;;17.68;100.00
30897;BME280;64229;52.246;21.054;2023-09-19T00:42:47;99905.53;;;17.61;100.00
30897;BME280;64229;52.246;21.054;2023-09-19T00:45:14;99893.19;;;17.69;100.00
30897;BME280;64229;52.246;21.054;2023-09-19T00:47:41;99892.50;;;17.63;100.00
30897;BME280;64229;52.246;21.054;2023-09-19T00:50:08;99890.31;;;17.57;100.00
30897;BME280;64229;52.246;21.054;2023-09-19T00:52:34;99885.06;;;17.52;100.00
30897;BME280;64229;52.246;21.054;2023-09-19T00:55:05;99885.19;;;17.64;100.00
30897;BME280;64229;52.246;21.054;2023-09-19T00:57:31;99883.63;;;17.54;100.00
30897;BME280;64229;52.246;21.054;2023-09-19T00:59:58;99890.94;;;17.54;100.00
30897;BME280;64229;52.246;21.054;2023-09-19T01:02:24;99888.22;;;17.62;100.00
30897;BME280;64229;52.246;21.054;2023-09-19T01:04:49;99891.13;;;17.49;100.00
30897;BME280;64229;52.246;21.054;2023-09-19T01:07:15;99874.16;;;17.40;100.00
30897;BME280;64229;52.246;21.054;2023-09-19T01:09:41;99883.66;;;17.46;100.00
30897;BME280;64229;52.246;21.054;2023-09-19T01:12:08;99880.47;;;17.44;100.00
30897;BME280;64229;52.246;21.054;2023-09-19T01:14:47;99873.69;;;17.38;100.00
30897;BME280;64229;52.246;21.054;2023-09-19T01:17:25;99868.44;;;17.41;100.00
30897;BME280;64229;52.246;21.054;2023-09-19T01:26:22;99855.78;;;17.24;100.00
30897;BME280;64229;52.246;21.054;2023-09-19T01:28:48;99857.50;;;17.20;100.00
30897;BME280;64229;52.246;21.054;2023-09-19T01:31:19;99853.56;;;17.18;100.00
30897;BME280;64229;52.246;21.054;2023-09-19T01:34:02;99860.66;;;17.48;100.00
30897;BME280;64229;52.246;21.054;2023-09-19T01:36:34;99851.63;;;17.44;100.00
30897;BME280;64229;52.246;21.054;2023-09-19T01:39:03;99850.34;;;17.42;100.00
30897;BME280;64229;52.246;21.054;2023-09-19T01:41:44;99847.69;;;17.24;100.00
30897;BME280;64229;52.246;21.054;2023-09-19T01:44:18;99845.78;;;17.16;100.00
30897;BME280;64229;52.246;21.054;2023-09-19T01:46:47;99852.59;;;17.22;100.00
30897;BME280;64229;52.246;21.054;2023-09-19T01:49:18;99843.06;;;17.33;100.00
30897;BME280;64229;52.246;21.054;2023-09-19T01:52:00;99840.19;;;17.39;100.00
30897;BME280;64229;52.246;21.054;2023-09-19T01:54:31;99836.38;;;17.40;100.00
30897;BME280;64229;52.246;21.054;2023-09-19T01:57:02;99837.19;;;17.40;100.00
30897;BME280;64229;52.246;21.054;2023-09-19T01:59:35;99834.16;;;17.42;100.00
30897;BME280;64229;52.246;21.054;2023-09-19T02:02:01;99829.88;;;17.32;100.00
30897;BME280;64229;52.246;21.054;2023-09-19T02:04:28;99834.66;;;17.26;100.00
30897;BME280;64229;52.246;21.054;2023-09-19T02:06:53;99832.13;;;17.21;100.00
30897;BME280;64229;52.246;21.054;2023-09-19T02:09:19;99838.75;;;17.50;100.00
30897;BME280;64229;52.246;21.054;2023-09-19T02:11:44;99831.63;;;17.37;100.00
30897;BME280;64229;52.246;21.054;2023-09-19T02:14:09;99829.09;;;17.40;100.00
30897;BME280;64229;52.246;21.054;2023-09-19T02:16:35;99818.81;;;17.25;100.00
30897;BME280;64229;52.246;21.054;2023-09-19T02:19:00;99832.63;;;17.15;100.00
30897;BME280;64229;52.246;21.054;2023-09-19T02:21:26;99813.59;;;17.11;100.00
30897;BME280;64229;52.246;21.054;2023-09-19T02:23:54;99825.31;;;17.24;100.00
30897;BME280;64229;52.246;21.054;2023-09-19T02:26:20;99823.22;;;17.29;100.00
30897;BME280;64229;52.246;21.054;2023-09-19T02:28:45;99818.50;;;17.26;100.00
30897;BME280;64229;52.246;21.054;2023-09-19T02:31:11;99801.41;;;17.05;100.00
30897;BME280;64229;52.246;21.054;2023-09-19T02:33:37;99812.63;;;17.16;100.00
30897;BME280;64229;52.246;21.054;2023-09-19T02:36:03;99804.88;;;17.05;100.00
30897;BME280;64229;52.246;21.054;2023-09-19T02:38:29;99791.53;;;17.09;100.00
30897;BME280;64229;52.246;21.054;2023-09-19T02:40:55;99806.28;;;17.20;100.00
30897;BME280;64229;52.246;21.054;2023-09-19T02:43:20;99786.81;;;16.97;100.00
30897;BME280;64229;52.246;21.054;2023-09-19T02:45:46;99789.34;;;16.94;100.00
30897;BME280;64229;52.246;21.054;2023-09-19T02:48:12;99799.47;;;17.14;100.00
30897;BME280;64229;52.246;21.054;2023-09-19T02:50:37;99805.19;;;17.13;100.00
30897;BME280;64229;52.246;21.054;2023-09-19T02:53:05;99802.66;;;17.08;100.00
30897;BME280;64229;52.246;21.054;2023-09-19T02:55:31;99791.53;;;17.00;100.00
30897;BME280;64229;52.246;21.054;2023-09-19T02:57:57;99781.91;;;16.91;100.00
30897;BME280;64229;52.246;21.054;2023-09-19T03:00:23;99792.84;;;16.94;100.00
30897;BME280;64229;52.246;21.054;2023-09-19T03:02:55;99797.13;;;16.87;100.00
30897;BME280;64229;52.246;21.054;2023-09-19T03:05:22;99791.41;;;16.80;100.00
30897;BME280;64229;52.246;21.054;2023-09-19T03:07:48;99786.97;;;16.75;100.00
30897;BME280;64229;52.246;21.054;2023-09-19T03:10:15;99783.66;;;16.69;100.00
30897;BME280;64229;52.246;21.054;2023-09-19T03:12:41;99782.66;;;16.65;100.00
30897;BME280;64229;52.246;21.054;2023-09-19T03:15:07;99775.88;;;16.68;100.00
30897;BME280;64229;52.246;21.054;2023-09-19T03:17:34;99770.34;;;16.82;100.00
30897;BME280;64229;52.246;21.054;2023-09-19T03:19:59;99760.81;;;16.75;100.00
30897;BME280;64229;52.246;21.054;2023-09-19T03:22:26;99770.00;;;16.66;100.00
30897;BME280;64229;52.246;21.054;2023-09-19T03:24:52;99774.75;;;16.60;100.00
30897;BME280;64229;52.246;21.054;2023-09-19T03:27:17;99777.94;;;16.62;100.00
30897;BME280;64229;52.246;21.054;2023-09-19T03:29:42;99770.94;;;16.61;100.00
30897;BME280;64229;52.246;21.054;2023-09-19T03:32:08;99776.84;;;16.72;100.00
30897;BME280;64229;52.246;21.054;2023-09-19T03:34:37;99776.06;;;16.71;100.00
30897;BME280;64229;52.246;21.054;2023-09-19T03:37:05;99783.13;;;16.67;100.00
30897;BME280;64229;52.246;21.054;2023-09-19T03:39:31;99764.28;;;16.67;100.00
30897;BME280;64229;52.246;21.054;2023-09-19T03:41:57;99772.22;;;16.64;100.00
30897;BME280;64229;52.246;21.054;2023-09-19T03:44:22;99754.03;;;16.69;100.00
30897;BME280;64229;52.246;21.054;2023-09-19T03:46:48;99764.63;;;16.83;100.00
30897;BME280;64229;52.246;21.054;2023-09-19T03:49:13;99760.19;;;16.78;100.00
30897;BME280;64229;52.246;21.054;2023-09-19T03:51:38;99759.06;;;16.80;100.00
30897;BME280;64229;52.246;21.054;2023-09-19T03:54:06;99759.25;;;16.92;100.00
30897;BME280;64229;52.246;21.054;2023-09-19T03:56:32;99757.47;;;17.04;100.00
30897;BME280;64229;52.246;21.054;2023-09-19T03:58:57;99760.97;;;16.88;100.00
30897;BME280;64229;52.246;21.054;2023-09-19T04:01:23;99759.25;;;16.92;100.00
30897;BME280;64229;52.246;21.054;2023-09-19T04:03:48;99746.25;;;16.76;100.00
30897;BME280;64229;52.246;21.054;2023-09-19T04:06:14;99766.81;;;16.98;100.00
30897;BME280;64229;52.246;21.054;2023-09-19T04:08:39;99754.97;;;16.91;100.00
30897;BME280;64229;52.246;21.054;2023-09-19T04:11:05;99759.38;;;16.95;100.00
30897;BME280;64229;52.246;21.054;2023-09-19T04:13:30;99755.44;;;16.84;100.00
30897;BME280;64229;52.246;21.054;2023-09-19T04:15:56;99749.91;;;16.72;100.00
30897;BME280;64229;52.246;21.054;2023-09-19T04:18:21;99742.59;;;16.81;100.00
30897;BME280;64229;52.246;21.054;2023-09-19T04:20:52;99751.31;;;16.87;100.00
30897;BME280;64229;52.246;21.054;2023-09-19T04:23:17;99734.84;;;16.71;100.00
30897;BME280;64229;52.246;21.054;2023-09-19T04:25:45;99739.41;;;16.62;100.00
30897;BME280;64229;52.246;21.054;2023-09-19T04:28:10;99730.88;;;16.60;100.00
30897;BME280;64229;52.246;21.054;2023-09-19T04:30:36;99732.59;;;16.56;100.00
30897;BME280;64229;52.246;21.054;2023-09-19T04:33:02;99735.78;;;16.49;100.00
30897;BME280;64229;52.246;21.054;2023-09-19T04:35:27;99731.19;;;16.41;100.00
30897;BME280;64229;52.246;21.054;2023-09-19T04:37:54;99734.34;;;16.43;100.00
30897;BME280;64229;52.246;21.054;2023-09-19T04:40:20;99724.38;;;16.52;100.00
30897;BME280;64229;52.246;21.054;2023-09-19T04:42:45;99728.00;;;16.47;100.00
30897;BME280;64229;52.246;21.054;2023-09-19T04:45:11;99732.75;;;16.42;100.00
30897;BME280;64229;52.246;21.054;2023-09-19T04:47:37;99720.72;;;16.39;100.00
30897;BME280;64229;52.246;21.054;2023-09-19T04:50:08;99725.16;;;16.44;100.00
30897;BME280;64229;52.246;21.054;2023-09-19T04:52:38;99722.13;;;16.45;100.00
30897;BME280;64229;52.246;21.054;2023-09-19T04:55:04;99713.25;;;16.45;100.00
30897;BME280;64229;52.246;21.054;2023-09-19T04:57:29;99716.91;;;16.49;100.00
30897;BME280;64229;52.246;21.054;2023-09-19T04:59:56;99721.84;;;16.73;100.00
30897;BME280;64229;52.246;21.054;2023-09-19T05:02:22;99720.41;;;16.75;100.00
30897;BME280;64229;52.246;21.054;2023-09-19T05:04:47;99715.66;;;16.72;100.00
30897;BME280;64229;52.246;21.054;2023-09-19T05:07:13;99720.09;;;16.77;100.00
30897;BME280;64229;52.246;21.054;2023-09-19T05:09:38;99709.47;;;16.72;100.00
30897;BME280;64229;52.246;21.054;2023-09-19T05:12:04;99712.47;;;16.79;100.00
30897;BME280;64229;52.246;21.054;2023-09-19T05:14:29;99720.06;;;16.86;100.00
30897;BME280;64229;52.246;21.054;2023-09-19T05:16:55;99719.09;;;16.90;100.00
30897;BME280;64229;52.246;21.054;2023-09-19T05:19:20;99723.69;;;16.90;100.00
30897;BME280;64229;52.246;21.054;2023-09-19T05:21:45;99722.78;;;16.86;100.00
30897;BME280;64229;52.246;21.054;2023-09-19T05:24:12;99707.34;;;17.03;100.00
30897;BME280;64229;52.246;21.054;2023-09-19T05:26:39;99711.44;;;17.10;100.00
30897;BME280;64229;52.246;21.054;2023-09-19T05:29:05;99710.31;;;17.19;100.00
30897;BME280;64229;52.246;21.054;2023-09-19T05:31:33;99713.97;;;17.23;100.00
30897;BME280;64229;52.246;21.054;2023-09-19T05:33:58;99711.88;;;17.29;100.00
30897;BME280;64229;52.246;21.054;2023-09-19T05:36:26;99726.00;;;17.26;100.00
30897;BME280;64229;52.246;21.054;2023-09-19T05:38:51;99712.19;;;17.27;100.00
30897;BME280;64229;52.246;21.054;2023-09-19T05:41:18;99711.63;;;17.43;100.00
30897;BME280;64229;52.246;21.054;2023-09-19T05:43:43;99712.94;;;17.45;100.00
30897;BME280;64229;52.246;21.054;2023-09-19T05:46:09;99710.50;;;17.52;100.00
30897;BME280;64229;52.246;21.054;2023-09-19T05:48:34;99710.22;;;17.45;100.00
30897;BME280;64229;52.246;21.054;2023-09-19T05:51:00;99705.13;;;17.44;100.00
30897;BME280;64229;52.246;21.054;2023-09-19T05:53:26;99716.69;;;17.53;100.00
30897;BME280;64229;52.246;21.054;2023-09-19T05:55:51;99713.34;;;17.56;100.00
30897;BME280;64229;52.246;21.054;2023-09-19T05:58:18;99693.69;;;17.55;100.00
30897;BME280;64229;52.246;21.054;2023-09-19T06:00:45;99700.31;;;17.58;100.00
30897;BME280;64229;52.246;21.054;2023-09-19T06:03:12;99703.44;;;17.69;100.00
30897;BME280;64229;52.246;21.054;2023-09-19T06:05:39;99706.97;;;17.69;100.00
30897;BME280;64229;52.246;21.054;2023-09-19T06:08:06;99709.16;;;17.67;100.00
30897;BME280;64229;52.246;21.054;2023-09-19T06:10:33;99704.69;;;17.80;100.00
30897;BME280;64229;52.246;21.054;2023-09-19T06:12:59;99703.97;;;17.91;100.00
30897;BME280;64229;52.246;21.054;2023-09-19T06:15:25;99697.53;;;18.05;100.00
30897;BME280;64229;52.246;21.054;2023-09-19T06:17:52;99722.88;;;18.12;100.00
30897;BME280;64229;52.246;21.054;2023-09-19T06:20:22;99730.25;;;18.03;100.00
30897;BME280;64229;52.246;21.054;2023-09-19T06:22:48;99737.19;;;18.13;100.00
30897;BME280;64229;52.246;21.054;2023-09-19T06:25:15;99743.31;;;18.22;100.00
30897;BME280;64229;52.246;21.054;2023-09-19T06:27:52;99736.97;;;18.39;100.00
30897;BME280;64229;52.246;21.054;2023-09-19T06:30:20;99742.31;;;18.47;100.00
30897;BME280;64229;52.246;21.054;2023-09-19T06:32:45;99744.16;;;18.56;100.00
30897;BME280;64229;52.246;21.054;2023-09-19T06:35:15;99732.34;;;18.60;100.00
30897;BME280;64229;52.246;21.054;2023-09-19T06:37:41;99742.47;;;18.72;100.00
30897;BME280;64229;52.246;21.054;2023-09-19T06:40:11;99744.88;;;18.86;100.00
30897;BME280;64229;52.246;21.054;2023-09-19T06:42:46;99741.09;;;18.99;100.00
30897;BME280;64229;52.246;21.054;2023-09-19T06:45:13;99738.22;;;19.16;100.00
30897;BME280;64229;52.246;21.054;2023-09-19T06:47:43;99754.47;;;19.41;99.17
30897;BME280;64229;52.246;21.054;2023-09-19T06:50:10;99753.72;;;19.52;97.88
30897;BME280;64229;52.246;21.054;2023-09-19T06:52:40;99749.69;;;19.58;97.52
30897;BME280;64229;52.246;21.054;2023-09-19T06:55:05;99754.31;;;19.58;95.93
30897;BME280;64229;52.246;21.054;2023-09-19T06:57:31;99753.09;;;19.68;95.42
30897;BME280;64229;52.246;21.054;2023-09-19T06:59:57;99750.59;;;19.75;95.13
30897;BME280;64229;52.246;21.054;2023-09-19T07:02:22;99756.00;;;19.87;94.50
30897;BME280;64229;52.246;21.054;2023-09-19T07:04:47;99751.13;;;20.05;93.71
30897;BME280;64229;52.246;21.054;2023-09-19T07:07:13;99764.97;;;20.28;92.55
30897;BME280;64229;52.246;21.054;2023-09-19T07:09:39;99753.13;;;20.44;90.64
30897;BME280;64229;52.246;21.054;2023-09-19T07:12:04;99769.69;;;20.55;90.31
30897;BME280;64229;52.246;21.054;2023-09-19T07:14:30;99759.38;;;20.61;90.23
30897;BME280;64229;52.246;21.054;2023-09-19T07:16:55;99760.47;;;20.72;89.03
30897;BME280;64229;52.246;21.054;2023-09-19T07:19:20;99753.41;;;20.83;86.22
30897;BME280;64229;52.246;21.054;2023-09-19T07:21:46;99756.31;;;20.90;85.63
30897;BME280;64229;52.246;21.054;2023-09-19T07:24:12;99767.47;;;21.01;85.16
30897;BME280;64229;52.246;21.054;2023-09-19T07:26:38;99774.31;;;21.11;84.64
30897;BME280;64229;52.246;21.054;2023-09-19T07:29:05;99775.44;;;21.09;84.76
30897;BME280;64229;52.246;21.054;2023-09-19T07:31:32;99781.13;;;21.04;84.94
30897;BME280;64229;52.246;21.054;2023-09-19T07:33:57;99786.16;;;21.18;83.61
30897;BME280;64229;52.246;21.054;2023-09-19T07:36:22;99776.44;;;21.17;84.43
30897;BME280;64229;52.246;21.054;2023-09-19T07:38:49;99792.88;;;21.24;83.47
30897;BME280;64229;52.246;21.054;2023-09-19T07:41:14;99791.97;;;21.32;82.01
30897;BME280;64229;52.246;21.054;2023-09-19T07:43:40;99799.59;;;21.27;82.69
30897;BME280;64229;52.246;21.054;2023-09-19T07:46:06;99801.44;;;21.39;81.50
30897;BME280;64229;52.246;21.054;2023-09-19T07:48:33;99799.88;;;21.53;80.84
30897;BME280;64229;52.246;21.054;2023-09-19T07:51:02;99796.44;;;21.56;81.02
30897;BME280;64229;52.246;21.054;2023-09-19T07:53:28;99795.50;;;21.49;81.68
30897;BME280;64229;52.246;21.054;2023-09-19T07:56:05;99789.59;;;21.47;81.50
30897;BME280;64229;52.246;21.054;2023-09-19T07:58:30;99803.56;;;21.61;81.00
30897;BME280;64229;52.246;21.054;2023-09-19T08:00:56;99799.44;;;21.83;79.26
30897;BME280;64229;52.246;21.054;2023-09-19T08:03:21;99803.72;;;21.84;79.81
30897;BME280;64229;52.246;21.054;2023-09-19T08:05:47;99802.31;;;21.74;80.72
30897;BME280;64229;52.246;21.054;2023-09-19T08:08:13;99804.97;;;21.71;80.39
30897;BME280;64229;52.246;21.054;2023-09-19T08:10:39;99805.66;;;21.83;79.44
30897;BME280;64229;52.246;21.054;2023-09-19T08:13:07;99814.25;;;21.85;80.03
30897;BME280;64229;52.246;21.054;2023-09-19T08:15:36;99813.53;;;22.04;78.86
30897;BME280;64229;52.246;21.054;2023-09-19T08:18:05;99812.84;;;22.07;78.78
30897;BME280;64229;52.246;21.054;2023-09-19T08:20:30;99811.59;;;22.05;79.23
30897;BME280;64229;52.246;21.054;2023-09-19T08:22:56;99808.31;;;22.31;77.66
30897;BME280;64229;52.246;21.054;2023-09-19T08:25:22;99819.06;;;22.43;77.19
30897;BME280;64229;52.246;21.054;2023-09-19T08:27:48;99810.72;;;22.51;76.58
30897;BME280;64229;52.246;21.054;2023-09-19T08:30:18;99806.56;;;22.38;76.64
30897;BME280;64229;52.246;21.054;2023-09-19T08:32:45;99814.47;;;22.28;77.51
30897;BME280;64229;52.246;21.054;2023-09-19T08:35:11;99819.91;;;22.28;77.60
30897;BME280;64229;52.246;21.054;2023-09-19T08:37:36;99816.91;;;22.33;77.69
30897;BME280;64229;52.246;21.054;2023-09-19T08:40:02;99811.22;;;22.38;77.74
30897;BME280;64229;52.246;21.054;2023-09-19T08:42:27;99824.97;;;22.45;77.75
30897;BME280;64229;52.246;21.054;2023-09-19T08:44:53;99813.38;;;22.48;77.07
30897;BME280;64229;52.246;21.054;2023-09-19T08:47:27;99816.56;;;22.53;76.88
30897;BME280;64229;52.246;21.054;2023-09-19T08:52:29;99830.31;;;22.41;76.88
30897;BME280;64229;52.246;21.054;2023-09-19T08:55:01;99822.97;;;22.26;77.80
30897;BME280;64229;52.246;21.054;2023-09-19T08:57:33;99822.47;;;22.20;77.98
30897;BME280;64229;52.246;21.054;2023-09-19T09:00:00;99822.56;;;22.08;78.67
30897;BME280;64229;52.246;21.054;2023-09-19T09:02:27;99798.56;;;21.94;78.68
30897;BME280;64229;52.246;21.054;2023-09-19T09:04:53;99816.16;;;21.85;79.75
30897;BME280;64229;52.246;21.054;2023-09-19T09:07:20;99813.13;;;21.71;80.54
30897;BME280;64229;52.246;21.054;2023-09-19T09:09:46;99811.00;;;21.64;81.15
30897;BME280;64229;52.246;21.054;2023-09-19T09:12:14;99821.50;;;21.65;81.22
30897;BME280;64229;52.246;21.054;2023-09-19T09:14:44;99825.56;;;21.72;80.96
30897;BME280;64229;52.246;21.054;2023-09-19T09:17:10;99823.63;;;21.72;81.18
30897;BME280;64229;52.246;21.054;2023-09-19T09:19:35;99827.56;;;21.59;81.83
30897;BME280;64229;52.246;21.054;2023-09-19T09:22:10;99838.47;;;21.47;82.91
30897;BME280;64229;52.246;21.054;2023-09-19T09:24:36;99840.31;;;21.43;82.85
30897;BME280;64229;52.246;21.054;2023-09-19T09:27:04;99844.00;;;21.22;84.24
30897;BME280;64229;52.246;21.054;2023-09-19T09:29:48;99853.22;;;21.18;84.71
30897;BME280;64229;52.246;21.054;2023-09-19T09:34:55;99862.47;;;20.89;86.57
30897;BME280;64229;52.246;21.054;2023-09-19T09:37:22;99860.63;;;20.93;86.41
30897;BME280;64229;52.246;21.054;2023-09-19T09:39:52;99848.81;;;20.85;87.35
30897;BME280;64229;52.246;21.054;2023-09-19T09:42:37;99858.44;;;20.70;88.09
30897;BME280;64229;52.246;21.054;2023-09-19T09:47:48;99859.59;;;20.57;90.53
30897;BME280;64229;52.246;21.054;2023-09-19T09:50:33;99874.03;;;20.61;92.51
30897;BME280;64229;52.246;21.054;2023-09-19T09:53:25;99875.06;;;20.32;94.55
30897;BME280;64229;52.246;21.054;2023-09-19T09:56:05;99885.34;;;20.02;96.62
30897;BME280;64229;52.246;21.054;2023-09-19T09:58:51;99884.75;;;19.84;98.87
30897;BME280;64229;52.246;21.054;2023-09-19T10:01:21;99875.22;;;19.66;100.00
30897;BME280;64229;52.246;21.054;2023-09-19T10:03:57;99887.06;;;19.61;100.00
30897;BME280;64229;52.246;21.054;2023-09-19T10:06:22;99889.81;;;19.53;100.00
30897;BME280;64229;52.246;21.054;2023-09-19T10:09:08;99889.53;;;19.33;100.00
30897;BME280;64229;52.246;21.054;2023-09-19T10:11:44;99897.94;;;19.20;100.00
30897;BME280;64229;52.246;21.054;2023-09-19T10:14:16;99902.16;;;19.08;100.00
30897;BME280;64229;52.246;21.054;2023-09-19T10:16:48;99903.97;;;19.04;100.00
30897;BME280;64229;52.246;21.054;2023-09-19T10:19:48;99912.88;;;19.05;100.00
30897;BME280;64229;52.246;21.054;2023-09-19T10:22:19;99911.13;;;19.21;100.00
30897;BME280;64229;52.246;21.054;2023-09-19T10:24:49;99912.78;;;19.14;100.00
30897;BME280;64229;52.246;21.054;2023-09-19T10:27:17;99910.56;;;19.16;100.00
30897;BME280;64229;52.246;21.054;2023-09-19T10:29:45;99913.97;;;19.25;100.00
30897;BME280;64229;52.246;21.054;2023-09-19T10:32:14;99907.91;;;19.07;100.00
30897;BME280;64229;52.246;21.054;2023-09-19T10:34:46;99920.25;;;19.17;100.00
30897;BME280;64229;52.246;21.054;2023-09-19T10:37:13;99911.88;;;19.10;100.00
30897;BME280;64229;52.246;21.054;2023-09-19T10:39:40;99914.00;;;19.04;100.00
30897;BME280;64229;52.246;21.054;2023-09-19T10:42:07;99920.03;;;19.01;100.00
30897;BME280;64229;52.246;21.054;2023-09-19T10:44:38;99899.69;;;19.03;100.00
30897;BME280;64229;52.246;21.054;2023-09-19T10:47:07;99908.63;;;19.16;100.00
30897;BME280;64229;52.246;21.054;2023-09-19T10:49:33;99903.41;;;19.32;100.00
30897;BME280;64229;52.246;21.054;2023-09-19T10:52:00;99903.41;;;19.32;100.00
30897;BME280;64229;52.246;21.054;2023-09-19T10:54:31;99898.25;;;19.39;100.00
30897;BME280;64229;52.246;21.054;2023-09-19T10:56:59;99895.72;;;19.34;100.00
30897;BME280;64229;52.246;21.054;2023-09-19T10:59:25;99898.69;;;19.41;100.00
30897;BME280;64229;52.246;21.054;2023-09-19T11:01:59;99908.41;;;19.42;100.00
30897;BME280;64229;52.246;21.054;2023-09-19T11:12:12;99908.03;;;19.64;100.00
30897;BME280;64229;52.246;21.054;2023-09-19T11:14:39;99912.00;;;19.67;100.00
30897;BME280;64229;52.246;21.054;2023-09-19T11:30:31;99915.03;;;19.65;100.00
30897;BME280;64229;52.246;21.054;2023-09-19T11:33:16;99918.53;;;19.66;100.00
30897;BME280;64229;52.246;21.054;2023-09-19T11:36:14;99911.47;;;19.74;100.00
30897;BME280;64229;52.246;21.054;2023-09-19T11:41:36;99921.88;;;19.84;100.00
30897;BME280;64229;52.246;21.054;2023-09-19T11:46:31;99917.94;;;20.06;100.00
30897;BME280;64229;52.246;21.054;2023-09-19T11:49:07;99913.22;;;20.03;100.00
30897;BME280;64229;52.246;21.054;2023-09-19T11:51:40;99908.34;;;19.96;100.00
30897;BME280;64229;52.246;21.054;2023-09-19T11:54:11;99915.56;;;19.92;100.00
30897;BME280;64229;52.246;21.054;2023-09-19T11:56:43;99924.00;;;19.78;100.00
30897;BME280;64229;52.246;21.054;2023-09-19T11:59:10;99920.03;;;19.76;100.00
30897;BME280;64229;52.246;21.054;2023-09-19T12:01:38;99927.38;;;19.87;100.00
30897;BME280;64229;52.246;21.054;2023-09-19T12:04:11;99921.84;;;19.72;100.00
30897;BME280;64229;52.246;21.054;2023-09-19T12:06:37;99933.34;;;19.69;100.00
30897;BME280;64229;52.246;21.054;2023-09-19T12:09:04;99942.38;;;19.73;100.00
30897;BME280;64229;52.246;21.054;2023-09-19T12:11:41;99935.50;;;19.87;100.00
30897;BME280;64229;52.246;21.054;2023-09-19T12:14:08;99935.75;;;19.82;100.00
30897;BME280;64229;52.246;21.054;2023-09-19T12:16:33;99937.69;;;20.06;100.00
30897;BME280;64229;52.246;21.054;2023-09-19T12:19:17;99947.31;;;20.16;100.00
30897;BME280;64229;52.246;21.054;2023-09-19T12:21:54;99947.41;;;20.07;100.00
30897;BME280;64229;52.246;21.054;2023-09-19T12:24:19;99950.44;;;19.93;100.00
30897;BME280;64229;52.246;21.054;2023-09-19T12:26:46;99953.25;;;19.97;100.00
30897;BME280;64229;52.246;21.054;2023-09-19T12:29:18;99958.81;;;20.01;100.00
30897;BME280;64229;52.246;21.054;2023-09-19T12:31:51;99960.16;;;19.94;100.00
30897;BME280;64229;52.246;21.054;2023-09-19T12:34:28;99955.38;;;19.79;100.00
30897;BME280;64229;52.246;21.054;2023-09-19T12:37:04;99963.06;;;19.89;100.00
30897;BME280;64229;52.246;21.054;2023-09-19T12:39:53;99962.47;;;19.84;100.00
30897;BME280;64229;52.246;21.054;2023-09-19T12:42:22;99959.44;;;19.85;100.00
30897;BME280;64229;52.246;21.054;2023-09-19T12:44:51;99963.97;;;19.93;100.00
30897;BME280;64229;52.246;21.054;2023-09-19T12:47:21;99966.81;;;19.97;100.00
30897;BME280;64229;52.246;21.054;2023-09-19T12:52:35;99963.94;;;19.81;100.00
30897;BME280;64229;52.246;21.054;2023-09-19T12:55:01;99973.91;;;19.89;100.00
30897;BME280;64229;52.246;21.054;2023-09-19T12:57:28;99966.44;;;19.86;100.00
30897;BME280;64229;52.246;21.054;2023-09-19T12:59:57;99946.53;;;19.70;100.00
30897;BME280;64229;52.246;21.054;2023-09-19T13:02:22;99963.03;;;19.77;100.00
30897;BME280;64229;52.246;21.054;2023-09-19T13:04:53;99961.91;;;19.78;100.00
30897;BME280;64229;52.246;21.054;2023-09-19T13:07:41;99954.00;;;19.73;100.00
30897;BME280;64229;52.246;21.054;2023-09-19T13:10:10;99954.31;;;19.72;100.00
30897;BME280;64229;52.246;21.054;2023-09-19T13:12:38;99962.34;;;19.68;100.00
30897;BME280;64229;52.246;21.054;2023-09-19T13:15:08;99962.53;;;19.63;100.00
30897;BME280;64229;52.246;21.054;2023-09-19T13:17:47;99955.41;;;19.58;100.00
30897;BME280;64229;52.246;21.054;2023-09-19T13:20:24;99958.88;;;19.80;100.00
30897;BME280;64229;52.246;21.054;2023-09-19T13:22:55;99955.22;;;19.76;100.00
30897;BME280;64229;52.246;21.054;2023-09-19T13:25:25;99958.72;;;19.76;100.00
30897;BME280;64229;52.246;21.054;2023-09-19T13:27:54;99954.44;;;19.75;100.00
30897;BME280;64229;52.246;21.054;2023-09-19T13:30:23;99964.22;;;19.88;100.00
30897;BME280;64229;52.246;21.054;2023-09-19T13:32:50;99960.44;;;19.81;100.00